Time;durP1;ratioP1;P1;durP2;ratioP2;P2;SDS_P1;SDS_P2;PMS_P1;PMS_P2;Temp;Humidity;BMP_temperature;BMP_pressure;BME280_temperature;BME280_humidity;BME280_pressure;Samples;Min_cycle;Max_cycle;Signal;HPM_P1;HPM_P2
2021/04/22 00:01:43;;;;;;;5.75;2.33;;;;;;;;;;5059023;28;20068;-65
2021/04/22 00:04:09;;;;;;;12.25;2.03;;;;;;;;;;5059023;28;20446;-65
2021/04/22 00:06:34;;;;;;;7.55;2.78;;;;;;;;;;5056114;28;20108;-65
2021/04/22 00:08:59;;;;;;;20.42;2.58;;;;;;;;;;5055729;28;20120;-65
2021/04/22 00:11:24;;;;;;;10.63;2.38;;;;;;;;;;5055652;28;20087;-65
2021/04/22 00:13:50;;;;;;;13.15;2.42;;;;;;;;;;5055906;28;20032;-65
2021/04/22 00:16:15;;;;;;;12.43;2.53;;;;;;;;;;5055890;28;20044;-65
2021/04/22 00:18:41;;;;;;;11.38;2.85;;;;;;;;;;5055582;28;20373;-65
2021/04/22 00:21:06;;;;;;;13.57;2.70;;;;;;;;;;5055749;28;20108;-65
2021/04/22 00:23:31;;;;;;;14.50;2.70;;;;;;;;;;5054246;28;20041;-65
2021/04/22 00:25:57;;;;;;;15.73;2.55;;;;;;;;;;5055616;28;20021;-64
2021/04/22 00:28:22;;;;;;;18.77;2.50;;;;;;;;;;5055539;28;20056;-65
2021/04/22 00:30:48;;;;;;;18.92;2.85;;;;;;;;;;5055471;28;20037;-65
2021/04/22 00:33:17;;;;;;;20.10;2.85;;;;;;;;;;5055477;28;20021;-65
2021/04/22 00:35:43;;;;;;;24.33;3.08;;;;;;;;;;5055141;28;20468;-64
2021/04/22 00:38:08;;;;;;;11.95;2.92;;;;;;;;;;5055371;28;20033;-65
2021/04/22 00:40:34;;;;;;;16.73;3.33;;;;;;;;;;5055320;28;20044;-65
2021/04/22 00:43:00;;;;;;;18.05;2.42;;;;;;;;;;5055271;28;20059;-65
2021/04/22 00:45:25;;;;;;;10.90;2.55;;;;;;;;;;5055272;28;20044;-65
2021/04/22 00:47:51;;;;;;;13.98;3.20;;;;;;;;;;5054824;28;20100;-65
2021/04/22 00:50:19;;;;;;;9.00;2.40;;;;;;;;;;5055151;28;20039;-65
2021/04/22 00:52:44;;;;;;;13.88;2.60;;;;;;;;;;5054649;28;20094;-65
2021/04/22 00:55:10;;;;;;;23.38;2.60;;;;;;;;;;5055017;28;20021;-64
2021/04/22 00:57:35;;;;;;;11.18;2.22;;;;;;;;;;5055019;28;20029;-65
2021/04/22 01:00:01;;;;;;;13.95;3.38;;;;;;;;;;5054944;28;20107;-65
2021/04/22 01:02:26;;;;;;;14.52;3.10;;;;;;;;;;5054843;28;20017;-65
2021/04/22 01:04:51;;;;;;;10.80;3.85;;;;;;;;;;5054863;28;20033;-65
2021/04/22 01:07:17;;;;;;;14.23;2.90;;;;;;;;;;5054752;28;20119;-65
2021/04/22 01:09:43;;;;;;;13.82;2.45;;;;;;;;;;5054853;28;20021;-65
2021/04/22 01:12:09;;;;;;;16.55;2.70;;;;;;;;;;5054654;28;20098;-65
2021/04/22 01:14:34;;;;;;;15.95;3.22;;;;;;;;;;5054441;28;20033;-64
2021/04/22 01:17:00;;;;;;;15.75;3.35;;;;;;;;;;5054519;28;20009;-65
2021/04/22 01:19:25;;;;;;;12.07;2.63;;;;;;;;;;5054520;28;20040;-65
2021/04/22 01:21:51;;;;;;;16.58;2.88;;;;;;;;;;5054082;28;20071;-65
2021/04/22 01:24:16;;;;;;;14.13;3.03;;;;;;;;;;5054577;28;20026;-64
2021/04/22 01:26:41;;;;;;;16.90;2.50;;;;;;;;;;5054308;28;20535;-65
2021/04/22 01:29:06;;;;;;;13.90;2.72;;;;;;;;;;5054115;28;20039;-65
2021/04/22 01:31:32;;;;;;;9.80;2.92;;;;;;;;;;5053937;28;20037;-65
2021/04/22 01:34:04;;;;;;;18.77;3.40;;;;;;;;;;5053971;28;20029;-65
2021/04/22 01:36:34;;;;;;;14.48;2.92;;;;;;;;;;5052977;28;20083;-65
2021/04/22 01:38:59;;;;;;;20.15;4.35;;;;;;;;;;5054136;28;20045;-64
2021/04/22 01:41:26;;;;;;;13.07;2.63;;;;;;;;;;5054182;28;20428;-65
2021/04/22 01:43:52;;;;;;;15.75;3.33;;;;;;;;;;5054046;28;20083;-65
2021/04/22 01:46:17;;;;;;;11.75;2.67;;;;;;;;;;5054105;28;20021;-65
2021/04/22 01:48:42;;;;;;;8.75;2.95;;;;;;;;;;5054002;28;20362;-64
2021/04/22 01:51:08;;;;;;;14.98;2.42;;;;;;;;;;5053953;28;20052;-64
2021/04/22 01:53:33;;;;;;;11.77;2.38;;;;;;;;;;5053794;28;20486;-64
2021/04/22 01:55:59;;;;;;;12.20;3.08;;;;;;;;;;5054275;28;20064;-64
2021/04/22 01:58:25;;;;;;;19.92;2.60;;;;;;;;;;5053533;28;20102;-65
2021/04/22 02:00:52;;;;;;;15.00;2.58;;;;;;;;;;5053396;28;20029;-65
2021/04/22 02:03:17;;;;;;;19.63;3.50;;;;;;;;;;5053494;28;20029;-64
2021/04/22 02:05:43;;;;;;;14.23;3.20;;;;;;;;;;5053523;28;20013;-64
2021/04/22 02:08:11;;;;;;;14.77;3.05;;;;;;;;;;5053886;28;20043;-64
2021/04/22 02:10:36;;;;;;;22.67;3.42;;;;;;;;;;5053715;28;20070;-64
2021/04/22 02:13:03;;;;;;;17.50;4.10;;;;;;;;;;5053237;28;20029;-64
2021/04/22 02:15:29;;;;;;;19.63;2.90;;;;;;;;;;5053605;28;20029;-65
2021/04/22 02:17:55;;;;;;;17.63;3.10;;;;;;;;;;5053465;28;20029;-64
2021/04/22 02:20:20;;;;;;;16.15;2.75;;;;;;;;;;5053487;28;20108;-65
2021/04/22 02:22:46;;;;;;;21.88;3.58;;;;;;;;;;5053112;28;20461;-64
2021/04/22 02:25:13;;;;;;;17.95;3.45;;;;;;;;;;5053720;28;20041;-64
2021/04/22 02:27:38;;;;;;;18.75;3.17;;;;;;;;;;5052933;28;20055;-64
2021/04/22 02:30:12;;;;;;;15.32;3.20;;;;;;;;;;5052896;28;20419;-64
2021/04/22 02:32:37;;;;;;;13.32;3.05;;;;;;;;;;5053084;28;20453;-65
2021/04/22 02:35:03;;;;;;;10.95;3.15;;;;;;;;;;5053405;28;20342;-64
2021/04/22 02:37:29;;;;;;;15.75;2.75;;;;;;;;;;5052793;28;20506;-64
2021/04/22 02:39:54;;;;;;;14.57;3.88;;;;;;;;;;5053019;28;20136;-65
2021/04/22 02:42:19;;;;;;;11.63;3.15;;;;;;;;;;5053011;28;20013;-64
2021/04/22 02:44:45;;;;;;;12.60;3.33;;;;;;;;;;5053206;28;20469;-65
2021/04/22 02:47:10;;;;;;;14.50;3.60;;;;;;;;;;5053039;28;20053;-65
2021/04/22 02:49:35;;;;;;;16.13;3.88;;;;;;;;;;5052780;28;20070;-64
2021/04/22 02:52:01;;;;;;;18.88;3.53;;;;;;;;;;5052704;28;20052;-65
2021/04/22 02:54:26;;;;;;;17.10;3.95;;;;;;;;;;5053100;28;20029;-65
2021/04/22 02:56:51;;;;;;;20.23;3.75;;;;;;;;;;5053137;28;20446;-64
2021/04/22 02:59:16;;;;;;;12.98;3.53;;;;;;;;;;5052896;28;20025;-64
2021/04/22 03:01:42;;;;;;;14.02;3.10;;;;;;;;;;5052972;28;20432;-64
2021/04/22 03:04:07;;;;;;;17.10;3.72;;;;;;;;;;5052654;28;20111;-64
2021/04/22 03:06:32;;;;;;;19.00;3.38;;;;;;;;;;5052894;28;20029;-64
2021/04/22 03:08:57;;;;;;;16.15;3.85;;;;;;;;;;5051461;28;20029;-64
2021/04/22 03:11:23;;;;;;;20.15;3.40;;;;;;;;;;5052896;28;20025;-64
2021/04/22 03:13:48;;;;;;;11.52;3.15;;;;;;;;;;5052797;28;20025;-64
2021/04/22 03:16:13;;;;;;;26.05;3.55;;;;;;;;;;5052887;28;20094;-64
2021/04/22 03:18:39;;;;;;;19.40;4.00;;;;;;;;;;5051343;28;20028;-64
2021/04/22 03:21:04;;;;;;;17.15;3.25;;;;;;;;;;5052883;28;20091;-64
2021/04/22 03:23:29;;;;;;;12.25;2.88;;;;;;;;;;5052721;28;20397;-64
2021/04/22 03:25:55;;;;;;;24.98;3.45;;;;;;;;;;5052768;28;20021;-64
2021/04/22 03:28:20;;;;;;;18.13;4.32;;;;;;;;;;5052638;28;20480;-64
2021/04/22 03:30:45;;;;;;;18.63;4.00;;;;;;;;;;5052764;28;20116;-64
2021/04/22 03:33:11;;;;;;;15.70;3.33;;;;;;;;;;5052470;28;20114;-65
2021/04/22 03:35:36;;;;;;;18.38;3.75;;;;;;;;;;5052684;28;20484;-64
2021/04/22 03:38:02;;;;;;;22.10;3.60;;;;;;;;;;5052555;28;20041;-64
2021/04/22 03:40:27;;;;;;;22.15;3.72;;;;;;;;;;5052295;28;20049;-64
2021/04/22 03:42:53;;;;;;;15.13;3.42;;;;;;;;;;5054977;28;20040;-65
2021/04/22 03:45:19;;;;;;;13.25;2.92;;;;;;;;;;5056461;28;20060;-64
2021/04/22 03:47:44;;;;;;;17.75;3.72;;;;;;;;;;5056311;28;20095;-64
2021/04/22 03:50:11;;;;;;;24.05;3.53;;;;;;;;;;5056256;28;20462;-64
2021/04/22 03:52:37;;;;;;;18.40;4.13;;;;;;;;;;5056080;28;20037;-64
2021/04/22 03:55:03;;;;;;;18.10;4.00;;;;;;;;;;5056311;28;20032;-65
2021/04/22 03:57:29;;;;;;;12.98;3.03;;;;;;;;;;5056108;28;20080;-64
2021/04/22 03:59:54;;;;;;;22.35;3.47;;;;;;;;;;5055817;28;20041;-64
2021/04/22 04:02:19;;;;;;;21.30;3.67;;;;;;;;;;5055981;28;20100;-64
2021/04/22 04:04:45;;;;;;;17.20;3.42;;;;;;;;;;5054824;28;20040;-65
2021/04/22 04:07:10;;;;;;;16.25;3.08;;;;;;;;;;5055909;28;20488;-64
2021/04/22 04:09:35;;;;;;;19.50;3.58;;;;;;;;;;5054956;28;20013;-64
2021/04/22 04:12:00;;;;;;;20.40;3.75;;;;;;;;;;5055796;28;20048;-65
2021/04/22 04:14:26;;;;;;;30.77;3.92;;;;;;;;;;5055735;28;20162;-64
2021/04/22 04:16:51;;;;;;;19.45;4.03;;;;;;;;;;5055740;28;20017;-64
2021/04/22 04:19:16;;;;;;;21.27;3.90;;;;;;;;;;5055733;28;20095;-64
2021/04/22 04:21:41;;;;;;;26.08;3.88;;;;;;;;;;5055608;28;20040;-64
2021/04/22 04:24:07;;;;;;;32.78;3.45;;;;;;;;;;5055640;28;20017;-64
2021/04/22 04:26:32;;;;;;;18.98;3.13;;;;;;;;;;5055613;28;20032;-65
2021/04/22 04:28:58;;;;;;;19.90;4.22;;;;;;;;;;5055737;28;20457;-64
2021/04/22 04:31:23;;;;;;;28.90;4.32;;;;;;;;;;5055434;28;20112;-64
2021/04/22 04:33:50;;;;;;;21.10;4.43;;;;;;;;;;5055368;28;20029;-64
2021/04/22 04:36:15;;;;;;;28.00;6.18;;;;;;;;;;5055452;28;20086;-64
2021/04/22 04:38:41;;;;;;;20.05;3.60;;;;;;;;;;5055098;28;20021;-64
2021/04/22 04:41:06;;;;;;;17.90;4.35;;;;;;;;;;5055388;28;20493;-64
2021/04/22 04:43:32;;;;;;;20.02;4.13;;;;;;;;;;5055114;28;20049;-64
2021/04/22 04:45:57;;;;;;;22.75;3.50;;;;;;;;;;5055271;28;20036;-64
2021/04/22 04:48:23;;;;;;;24.25;4.05;;;;;;;;;;5055176;28;20060;-64
2021/04/22 04:50:48;;;;;;;16.40;3.55;;;;;;;;;;5055117;28;20112;-65
2021/04/22 04:53:13;;;;;;;24.25;3.83;;;;;;;;;;5054646;28;20029;-64
2021/04/22 04:55:39;;;;;;;15.27;3.10;;;;;;;;;;5055125;28;20033;-64
2021/04/22 04:58:04;;;;;;;19.00;3.90;;;;;;;;;;5055001;28;20453;-64
2021/04/22 05:00:29;;;;;;;21.80;3.80;;;;;;;;;;5054939;28;20070;-64
2021/04/22 05:02:54;;;;;;;15.85;3.97;;;;;;;;;;5054876;28;20025;-64
2021/04/22 05:05:20;;;;;;;21.40;5.47;;;;;;;;;;5054604;28;20397;-64
2021/04/22 05:07:45;;;;;;;25.95;4.32;;;;;;;;;;5054773;28;20025;-64
2021/04/22 05:10:11;;;;;;;19.92;3.78;;;;;;;;;;5054781;28;20159;-64
2021/04/22 05:12:36;;;;;;;18.60;3.78;;;;;;;;;;5054624;28;20466;-64
2021/04/22 05:15:02;;;;;;;20.50;3.70;;;;;;;;;;5054808;28;20357;-64
2021/04/22 05:17:28;;;;;;;19.55;3.70;;;;;;;;;;5054572;28;20025;-64
2021/04/22 05:19:53;;;;;;;18.83;3.53;;;;;;;;;;5054956;28;20033;-64
2021/04/22 05:22:18;;;;;;;14.10;3.42;;;;;;;;;;5054426;28;20009;-64
2021/04/22 05:24:44;;;;;;;24.17;4.40;;;;;;;;;;5054530;28;20032;-64
2021/04/22 05:27:09;;;;;;;18.20;3.85;;;;;;;;;;5054520;28;20036;-64
2021/04/22 05:29:35;;;;;;;12.20;3.97;;;;;;;;;;5054283;28;20129;-64
2021/04/22 05:32:01;;;;;;;17.17;4.03;;;;;;;;;;5054306;28;20041;-64
2021/04/22 05:34:26;;;;;;;18.73;3.67;;;;;;;;;;5053977;28;20099;-65
2021/04/22 05:36:51;;;;;;;9.07;3.03;;;;;;;;;;5054365;28;20021;-64
2021/04/22 05:39:18;;;;;;;24.45;3.25;;;;;;;;;;5053809;28;20060;-64
2021/04/22 05:41:44;;;;;;;14.05;3.08;;;;;;;;;;5053980;28;20487;-64
2021/04/22 05:44:09;;;;;;;17.02;3.13;;;;;;;;;;5054056;28;20056;-64
2021/04/22 05:46:35;;;;;;;16.90;3.10;;;;;;;;;;5054195;28;20067;-64
2021/04/22 05:49:00;;;;;;;20.95;3.83;;;;;;;;;;5053980;28;20024;-64
2021/04/22 05:51:25;;;;;;;15.90;2.97;;;;;;;;;;5054019;28;20461;-65
2021/04/22 05:53:50;;;;;;;19.25;2.72;;;;;;;;;;5053836;28;20037;-65
2021/04/22 05:56:16;;;;;;;21.88;3.53;;;;;;;;;;5054057;28;20037;-65
2021/04/22 05:58:41;;;;;;;8.98;2.33;;;;;;;;;;5053477;28;20013;-65
2021/04/22 06:01:07;;;;;;;18.35;2.67;;;;;;;;;;5053566;28;20036;-65
2021/04/22 06:03:32;;;;;;;9.50;2.00;;;;;;;;;;5053631;28;20037;-65
2021/04/22 06:05:57;;;;;;;13.80;2.30;;;;;;;;;;5051727;28;20017;-66
2021/04/22 06:08:23;;;;;;;18.30;2.33;;;;;;;;;;5053657;28;20412;-65
2021/04/22 06:10:48;;;;;;;8.75;1.77;;;;;;;;;;5053736;28;20028;-66
2021/04/22 06:13:14;;;;;;;9.20;1.73;;;;;;;;;;5053487;28;20117;-66
2021/04/22 06:15:40;;;;;;;8.85;2.13;;;;;;;;;;5053648;28;20021;-66
2021/04/22 06:18:06;;;;;;;10.98;1.83;;;;;;;;;;5053445;28;20029;-66
2021/04/22 06:20:31;;;;;;;10.02;2.22;;;;;;;;;;5053642;28;20066;-66
2021/04/22 06:22:56;;;;;;;8.98;2.03;;;;;;;;;;5053322;28;20032;-66
2021/04/22 06:25:22;;;;;;;9.98;2.22;;;;;;;;;;5053517;28;20432;-66
2021/04/22 06:27:48;;;;;;;7.57;1.83;;;;;;;;;;5052966;28;20064;-66
2021/04/22 06:30:15;;;;;;;12.07;2.80;;;;;;;;;;5053355;28;20025;-66
2021/04/22 06:32:40;;;;;;;8.00;2.45;;;;;;;;;;5053462;28;20040;-66
2021/04/22 06:35:07;;;;;;;11.98;2.28;;;;;;;;;;5053583;28;20441;-66
2021/04/22 06:37:32;;;;;;;8.35;2.03;;;;;;;;;;5053346;28;20037;-66
2021/04/22 06:39:58;;;;;;;8.90;2.17;;;;;;;;;;5052572;28;20060;-66
2021/04/22 06:42:23;;;;;;;7.93;2.17;;;;;;;;;;5051920;28;20094;-66
2021/04/22 06:44:49;;;;;;;4.60;1.80;;;;;;;;;;5053069;28;20511;-66
2021/04/22 06:47:14;;;;;;;6.20;2.08;;;;;;;;;;5053133;28;20040;-66
2021/04/22 06:49:40;;;;;;;10.70;2.55;;;;;;;;;;5052756;28;20052;-66
2021/04/22 06:52:05;;;;;;;6.90;1.83;;;;;;;;;;5052711;28;20393;-67
2021/04/22 06:54:31;;;;;;;5.72;1.98;;;;;;;;;;5052654;28;20120;-66
2021/04/22 06:56:56;;;;;;;10.32;2.17;;;;;;;;;;5053152;28;20104;-66
2021/04/22 06:59:21;;;;;;;6.70;1.90;;;;;;;;;;5052929;28;20116;-64
2021/04/22 07:01:46;;;;;;;9.23;2.40;;;;;;;;;;5051649;28;20036;-64
2021/04/22 07:04:12;;;;;;;9.25;1.92;;;;;;;;;;5052759;28;20075;-64
2021/04/22 07:06:37;;;;;;;6.95;1.92;;;;;;;;;;5053046;28;20097;-64
2021/04/22 07:09:03;;;;;;;10.57;2.40;;;;;;;;;;5053115;28;20037;-64
2021/04/22 07:11:28;;;;;;;14.35;2.75;;;;;;;;;;5052925;28;20032;-65
2021/04/22 07:13:53;;;;;;;14.25;3.05;;;;;;;;;;5052765;28;20079;-64
2021/04/22 07:16:19;;;;;;;13.63;3.40;;;;;;;;;;5054577;28;20032;-65
2021/04/22 07:18:44;;;;;;;17.92;3.38;;;;;;;;;;5056753;28;20036;-64
2021/04/22 07:21:09;;;;;;;16.55;3.38;;;;;;;;;;5056969;28;20032;-65
2021/04/22 07:23:35;;;;;;;16.05;3.78;;;;;;;;;;5056675;28;20036;-64
2021/04/22 07:26:00;;;;;;;17.40;3.92;;;;;;;;;;5056867;28;20056;-64
2021/04/22 07:28:25;;;;;;;25.15;4.15;;;;;;;;;;5056546;28;20037;-65
2021/04/22 07:30:51;;;;;;;15.55;3.13;;;;;;;;;;5056412;28;20059;-65
2021/04/22 07:33:16;;;;;;;23.10;3.85;;;;;;;;;;5056440;28;20037;-65
2021/04/22 07:35:42;;;;;;;21.25;3.83;;;;;;;;;;5056633;28;20025;-65
2021/04/22 07:38:08;;;;;;;19.08;3.95;;;;;;;;;;5056484;28;20091;-64
2021/04/22 07:40:33;;;;;;;18.48;4.07;;;;;;;;;;5056171;28;20045;-65
2021/04/22 07:42:59;;;;;;;17.73;3.20;;;;;;;;;;5056376;28;20029;-65
2021/04/22 07:45:27;;;;;;;14.05;3.78;;;;;;;;;;5056756;28;20413;-65
2021/04/22 07:47:52;;;;;;;19.48;4.18;;;;;;;;;;5056414;28;20044;-65
2021/04/22 07:50:19;;;;;;;10.80;3.08;;;;;;;;;;5056365;28;20461;-65
2021/04/22 07:52:45;;;;;;;17.90;3.70;;;;;;;;;;5055946;28;20549;-65
2021/04/22 07:55:13;;;;;;;14.10;3.55;;;;;;;;;;5056173;28;20100;-64
2021/04/22 07:57:38;;;;;;;20.65;3.55;;;;;;;;;;5056329;28;20124;-65
2021/04/22 08:00:05;;;;;;;14.27;3.80;;;;;;;;;;5055738;28;20475;-65
2021/04/22 08:02:30;;;;;;;21.27;3.65;;;;;;;;;;5055935;28;20107;-65
2021/04/22 08:04:55;;;;;;;18.08;3.97;;;;;;;;;;5055988;28;20116;-65
2021/04/22 08:07:21;;;;;;;17.70;3.88;;;;;;;;;;5056007;28;20112;-65
2021/04/22 08:09:46;;;;;;;16.75;4.38;;;;;;;;;;5055817;28;20346;-65
2021/04/22 08:12:11;;;;;;;15.98;3.78;;;;;;;;;;5055968;28;20040;-65
2021/04/22 08:14:37;;;;;;;20.25;4.40;;;;;;;;;;5054853;28;20075;-67
2021/04/22 08:17:02;;;;;;;17.13;4.32;;;;;;;;;;5055930;28;20021;-67
2021/04/22 08:19:27;;;;;;;16.50;3.88;;;;;;;;;;5055698;28;20025;-67
2021/04/22 08:21:52;;;;;;;12.00;3.55;;;;;;;;;;5055731;28;20033;-67
2021/04/22 08:24:18;;;;;;;12.23;3.40;;;;;;;;;;5055498;28;20028;-67
2021/04/22 08:26:44;;;;;;;17.85;4.82;;;;;;;;;;5055590;28;20068;-67
2021/04/22 08:29:10;;;;;;;20.38;3.83;;;;;;;;;;5053547;28;20374;-65
2021/04/22 08:31:35;;;;;;;21.00;4.07;;;;;;;;;;5055419;28;20032;-65
2021/04/22 08:34:03;;;;;;;14.93;3.40;;;;;;;;;;5055439;28;20029;-65
2021/04/22 08:36:29;;;;;;;15.20;3.92;;;;;;;;;;5055413;28;20048;-65
2021/04/22 08:38:54;;;;;;;16.50;4.03;;;;;;;;;;5055419;28;20029;-65
2021/04/22 08:41:20;;;;;;;14.40;3.75;;;;;;;;;;5055350;28;20090;-65
2021/04/22 08:43:47;;;;;;;16.45;3.38;;;;;;;;;;5054931;28;20037;-65
2021/04/22 08:46:12;;;;;;;18.73;3.88;;;;;;;;;;5055372;28;20107;-65
2021/04/22 08:48:41;;;;;;;15.52;3.78;;;;;;;;;;5055256;28;20495;-65
2021/04/22 08:51:06;;;;;;;19.13;3.28;;;;;;;;;;5054842;28;20473;-65
2021/04/22 08:53:33;;;;;;;16.23;4.00;;;;;;;;;;5055067;28;20036;-65
2021/04/22 08:55:59;;;;;;;14.05;4.13;;;;;;;;;;5055045;28;20028;-65
2021/04/22 08:58:24;;;;;;;13.13;3.53;;;;;;;;;;5054722;28;20039;-65
2021/04/22 09:00:51;;;;;;;13.90;3.65;;;;;;;;;;5055050;28;20021;-65
2021/04/22 09:03:18;;;;;;;14.10;3.78;;;;;;;;;;5054898;28;20037;-65
2021/04/22 09:05:43;;;;;;;17.42;3.60;;;;;;;;;;5054952;28;20393;-65
2021/04/22 09:08:09;;;;;;;19.60;4.55;;;;;;;;;;5055101;28;20017;-65
2021/04/22 09:10:35;;;;;;;18.88;3.45;;;;;;;;;;5054851;28;20037;-65
2021/04/22 09:13:00;;;;;;;17.20;3.65;;;;;;;;;;5054711;28;20437;-65
2021/04/22 09:15:26;;;;;;;16.50;3.97;;;;;;;;;;5054641;28;20454;-65
2021/04/22 09:18:03;;;;;;;13.68;3.38;;;;;;;;;;5054686;28;20031;-65
2021/04/22 09:20:31;;;;;;;22.30;3.88;;;;;;;;;;5054511;28;20033;-65
2021/04/22 09:22:57;;;;;;;15.32;4.20;;;;;;;;;;5053295;28;20123;-65
2021/04/22 09:25:25;;;;;;;18.17;4.70;;;;;;;;;;5054410;28;20528;-65
2021/04/22 09:27:54;;;;;;;18.60;4.88;;;;;;;;;;5054532;28;20032;-65
2021/04/22 09:30:29;;;;;;;23.50;4.38;;;;;;;;;;5054469;28;20036;-65
2021/04/22 09:32:54;;;;;;;;;;;;;;;;;;5054775;28;20094;-65
2021/04/22 09:35:23;;;;;;;20.77;4.40;;;;;;;;;;5053937;28;19913;-65
2021/04/22 09:37:50;;;;;;;15.00;3.40;;;;;;;;;;5054672;28;20037;-65
2021/04/22 09:40:17;;;;;;;16.27;4.05;;;;;;;;;;5053795;28;20064;-65
2021/04/22 09:42:43;;;;;;;19.65;3.97;;;;;;;;;;5053917;28;20036;-65
2021/04/22 09:45:09;;;;;;;24.77;3.85;;;;;;;;;;5054088;28;20147;-65
2021/04/22 09:47:34;;;;;;;10.73;3.00;;;;;;;;;;5054166;28;20033;-65
2021/04/22 09:50:01;;;;;;;17.90;3.55;;;;;;;;;;5053741;28;20040;-65
2021/04/22 09:52:34;;;;;;;15.55;3.72;;;;;;;;;;5053625;28;20519;-65
2021/04/22 09:54:59;;;;;;;15.70;3.15;;;;;;;;;;5053935;28;20107;-65
2021/04/22 09:57:26;;;;;;;16.48;3.22;;;;;;;;;;5053667;28;20551;-65
2021/04/22 09:59:52;;;;;;;14.00;3.55;;;;;;;;;;5053877;28;20119;-65
2021/04/22 10:02:17;;;;;;;19.38;3.63;;;;;;;;;;5053565;28;20028;-66
2021/04/22 10:04:44;;;;;;;18.10;3.55;;;;;;;;;;5054067;28;20028;-65
2021/04/22 10:07:22;;;;;;;14.27;3.53;;;;;;;;;;5053338;28;20051;-65
2021/04/22 10:09:47;;;;;;;14.40;2.78;;;;;;;;;;5053496;28;20041;-65
2021/04/22 10:12:19;;;;;;;17.10;3.50;;;;;;;;;;5053734;28;20041;-65
2021/04/22 10:14:44;;;;;;;11.65;2.85;;;;;;;;;;5053586;28;20029;-65
2021/04/22 10:17:20;;;;;;;12.23;3.05;;;;;;;;;;5053612;28;20025;-65
2021/04/22 10:19:59;;;;;;;11.75;3.20;;;;;;;;;;5053509;28;20416;-65
2021/04/22 10:22:28;;;;;;;15.00;3.38;;;;;;;;;;5053259;28;20492;-65
2021/04/22 10:24:54;;;;;;;11.07;2.92;;;;;;;;;;5053366;28;20032;-65
2021/04/22 10:27:23;;;;;;;13.82;3.53;;;;;;;;;;5053483;28;20071;-65
2021/04/22 10:29:48;;;;;;;11.93;2.97;;;;;;;;;;5053364;28;20075;-65
2021/04/22 10:32:13;;;;;;;14.50;3.30;;;;;;;;;;5053399;28;20040;-67
2021/04/22 10:34:40;;;;;;;14.77;3.35;;;;;;;;;;5053477;28;20555;-67
2021/04/22 10:37:05;;;;;;;9.57;2.33;;;;;;;;;;5053064;28;20417;-67
2021/04/22 10:39:30;;;;;;;12.20;2.42;;;;;;;;;;5053108;28;20053;-66
2021/04/22 10:41:56;;;;;;;11.45;3.03;;;;;;;;;;5053272;28;20021;-67
2021/04/22 10:44:23;;;;;;;14.27;2.78;;;;;;;;;;5053099;28;20032;-67
2021/04/22 10:46:49;;;;;;;11.13;2.30;;;;;;;;;;5053249;28;20040;-66
2021/04/22 10:49:15;;;;;;;15.18;2.28;;;;;;;;;;5053089;28;20017;-66
2021/04/22 10:51:40;;;;;;;8.45;1.98;;;;;;;;;;5052689;28;20041;-66
2021/04/22 10:54:06;;;;;;;14.45;1.95;;;;;;;;;;5053016;28;20508;-66
2021/04/22 10:56:31;;;;;;;11.63;2.10;;;;;;;;;;5053064;28;20025;-66
2021/04/22 10:58:57;;;;;;;14.90;2.78;;;;;;;;;;5052953;28;20412;-66
2021/04/22 11:01:52;;;;;;;20.80;2.63;;;;;;;;;;5053136;28;20065;-66
2021/04/22 11:04:18;;;;;;;15.80;2.38;;;;;;;;;;5031690;28;20045;-66
2021/04/22 11:06:44;;;;;;;11.48;2.25;;;;;;;;;;5053122;28;20086;-66
2021/04/22 11:09:20;;;;;;;8.88;1.90;;;;;;;;;;5052817;28;20091;-66
2021/04/22 11:12:12;;;;;;;13.52;2.53;;;;;;;;;;5052894;28;20037;-66
2021/04/22 11:14:52;;;;;;;8.68;3.38;;;;;;;;;;5048074;28;20124;-66
2021/04/22 11:17:18;;;;;;;13.73;2.92;;;;;;;;;;5052918;28;20021;-66
2021/04/22 11:19:45;;;;;;;11.00;2.28;;;;;;;;;;5052855;28;20037;-66
2021/04/22 11:22:12;;;;;;;12.32;2.60;;;;;;;;;;5052888;28;20028;-66
2021/04/22 11:24:50;;;;;;;12.25;2.30;;;;;;;;;;5052679;28;20427;-66
2021/04/22 11:27:15;;;;;;;9.02;2.25;;;;;;;;;;5052567;28;20108;-66
2021/04/22 11:29:45;;;;;;;12.80;2.25;;;;;;;;;;5052706;28;20159;-66
2021/04/22 11:32:15;;;;;;;9.15;2.70;;;;;;;;;;5052651;28;20072;-66
2021/04/22 11:34:40;;;;;;;8.65;2.28;;;;;;;;;;5052349;28;20106;-66
2021/04/22 11:37:13;;;;;;;15.10;2.22;;;;;;;;;;5052757;28;20065;-66
2021/04/22 11:39:38;;;;;;;9.20;2.20;;;;;;;;;;5052306;28;20114;-66
2021/04/22 11:42:04;;;;;;;13.85;1.85;;;;;;;;;;5052654;28;20096;-65
2021/04/22 11:44:33;;;;;;;8.85;2.03;;;;;;;;;;5052476;28;20366;-66
2021/04/22 11:46:59;;;;;;;6.53;1.65;;;;;;;;;;5052387;28;20051;-66
2021/04/22 11:49:28;;;;;;;15.15;2.45;;;;;;;;;;5052519;28;20108;-66
2021/04/22 11:51:54;;;;;;;15.77;2.42;;;;;;;;;;5052513;28;20130;-66
2021/04/22 11:54:30;;;;;;;9.20;2.10;;;;;;;;;;5052434;28;20041;-66
2021/04/22 11:56:57;;;;;;;13.07;3.03;;;;;;;;;;5052538;28;20021;-66
2021/04/22 11:59:22;;;;;;;11.85;2.30;;;;;;;;;;5052381;28;20033;-65
2021/04/22 12:01:52;;;;;;;7.10;2.00;;;;;;;;;;5052588;28;20091;-65
2021/04/22 12:04:18;;;;;;;6.32;1.77;;;;;;;;;;5055364;28;20094;-66
2021/04/22 12:06:48;;;;;;;16.77;3.28;;;;;;;;;;5056088;28;20489;-66
2021/04/22 12:09:24;;;;;;;13.02;2.67;;;;;;;;;;5055946;28;20036;-66
2021/04/22 12:11:50;;;;;;;14.68;2.53;;;;;;;;;;5056014;28;20047;-66
2021/04/22 12:14:25;;;;;;;14.02;2.20;;;;;;;;;;5055810;28;20127;-66
2021/04/22 12:16:51;;;;;;;10.98;2.10;;;;;;;;;;5055982;28;20037;-66
2021/04/22 12:19:22;;;;;;;13.52;2.55;;;;;;;;;;5055697;28;20067;-66
2021/04/22 12:21:47;;;;;;;13.68;2.50;;;;;;;;;;5055567;28;20021;-66
2021/04/22 12:24:13;;;;;;;9.45;2.10;;;;;;;;;;5055517;28;20043;-66
2021/04/22 12:26:38;;;;;;;12.85;2.58;;;;;;;;;;5055729;28;20068;-66
2021/04/22 12:29:12;;;;;;;10.90;2.72;;;;;;;;;;5055549;28;20082;-66
2021/04/22 12:31:42;;;;;;;9.73;2.38;;;;;;;;;;5055488;28;20044;-66
2021/04/22 12:34:19;;;;;;;9.68;1.90;;;;;;;;;;5055416;28;20059;-66
2021/04/22 12:36:58;;;;;;;13.25;1.95;;;;;;;;;;5055851;28;20040;-65
2021/04/22 12:39:46;;;;;;;10.32;2.17;;;;;;;;;;5055231;28;20057;-66
2021/04/22 12:42:15;;;;;;;8.65;2.03;;;;;;;;;;5055440;28;20040;-66
2021/04/22 12:44:42;;;;;;;11.27;2.20;;;;;;;;;;5055254;28;20044;-65
2021/04/22 12:47:10;;;;;;;8.77;1.80;;;;;;;;;;5055570;28;20020;-65
2021/04/22 12:49:35;;;;;;;12.85;2.78;;;;;;;;;;5055208;28;20108;-66
2021/04/22 12:52:01;;;;;;;13.02;2.50;;;;;;;;;;5055151;28;20124;-66
2021/04/22 12:54:27;;;;;;;15.85;2.42;;;;;;;;;;5054756;28;20429;-66
2021/04/22 12:56:53;;;;;;;13.85;2.58;;;;;;;;;;5055229;28;20037;-66
2021/04/22 12:59:18;;;;;;;12.90;2.00;;;;;;;;;;5054966;28;20355;-65
2021/04/22 13:01:44;;;;;;;10.80;2.00;;;;;;;;;;5055151;28;20020;-65
2021/04/22 13:04:13;;;;;;;11.57;2.60;;;;;;;;;;5054899;28;20458;-65
2021/04/22 13:06:40;;;;;;;11.13;2.85;;;;;;;;;;5054978;28;20032;-66
2021/04/22 13:09:09;;;;;;;11.88;3.00;;;;;;;;;;5055058;28;20400;-66
2021/04/22 13:11:36;;;;;;;9.95;2.72;;;;;;;;;;5054797;28;20041;-66
2021/04/22 13:14:02;;;;;;;7.22;2.13;;;;;;;;;;5054334;28;20040;-65
2021/04/22 13:16:29;;;;;;;9.05;2.15;;;;;;;;;;5054859;28;20135;-66
2021/04/22 13:19:02;;;;;;;9.23;3.15;;;;;;;;;;5054671;28;20033;-66
2021/04/22 13:21:29;;;;;;;12.45;2.88;;;;;;;;;;5054703;28;20037;-66
2021/04/22 13:23:54;;;;;;;16.42;2.95;;;;;;;;;;5054502;28;20059;-66
2021/04/22 13:26:25;;;;;;;7.00;2.13;;;;;;;;;;5054559;28;20041;-66
2021/04/22 13:29:05;;;;;;;7.80;2.30;;;;;;;;;;5054621;28;20055;-66
2021/04/22 13:31:30;;;;;;;8.73;2.45;;;;;;;;;;5054360;28;20028;-66
2021/04/22 13:34:05;;;;;;;7.95;2.28;;;;;;;;;;5054280;28;20444;-66
2021/04/22 13:36:37;;;;;;;12.60;2.88;;;;;;;;;;5054411;28;20029;-65
2021/04/22 13:39:02;;;;;;;9.52;2.50;;;;;;;;;;5053813;28;20084;-65
2021/04/22 13:41:28;;;;;;;11.05;2.28;;;;;;;;;;5054290;28;20067;-66
2021/04/22 13:43:54;;;;;;;8.73;2.50;;;;;;;;;;5054356;28;20120;-65
2021/04/22 13:46:19;;;;;;;13.57;2.97;;;;;;;;;;5054034;28;20044;-66
2021/04/22 13:48:46;;;;;;;16.27;3.53;;;;;;;;;;5052994;28;20078;-66
2021/04/22 13:51:13;;;;;;;12.13;2.67;;;;;;;;;;5054034;28;20036;-65
2021/04/22 13:53:39;;;;;;;15.90;2.97;;;;;;;;;;5054320;28;20044;-66
2021/04/22 13:56:04;;;;;;;12.50;2.33;;;;;;;;;;5053920;28;20370;-65
2021/04/22 13:58:30;;;;;;;13.38;2.33;;;;;;;;;;5053979;28;20362;-65
2021/04/22 14:00:56;;;;;;;11.82;2.13;;;;;;;;;;5053846;28;20039;-66
2021/04/22 14:03:27;;;;;;;9.13;2.80;;;;;;;;;;5053830;28;20025;-66
2021/04/22 14:05:52;;;;;;;10.85;2.53;;;;;;;;;;5053781;28;20064;-66
2021/04/22 14:08:26;;;;;;;12.20;2.75;;;;;;;;;;5053708;28;20056;-66
2021/04/22 14:10:51;;;;;;;8.32;2.85;;;;;;;;;;5053720;28;20052;-66
2021/04/22 14:13:18;;;;;;;11.00;2.80;;;;;;;;;;5053528;28;20068;-66
2021/04/22 14:15:43;;;;;;;13.77;2.90;;;;;;;;;;5053568;28;20037;-66
2021/04/22 14:18:08;;;;;;;9.38;2.10;;;;;;;;;;5053737;28;20036;-66
2021/04/22 14:20:34;;;;;;;11.35;2.13;;;;;;;;;;5053132;28;20028;-66
2021/04/22 14:22:59;;;;;;;8.38;2.40;;;;;;;;;;5053554;28;20033;-66
2021/04/22 14:25:24;;;;;;;11.70;2.55;;;;;;;;;;5052644;28;20052;-66
2021/04/22 14:27:50;;;;;;;11.18;1.83;;;;;;;;;;5053500;28;20056;-66
2021/04/22 14:30:15;;;;;;;12.48;2.60;;;;;;;;;;5053304;28;20396;-65